createdAt,value
2023-06-30T00:02:00.665Z,6.50
2023-06-30T00:04:31.475Z,6.30
2023-06-30T00:09:26.711Z,6.40
2023-06-30T00:11:55.012Z,6.50
2023-06-30T00:14:22.871Z,6.40
2023-06-30T00:16:51.026Z,6.90
2023-06-30T00:19:18.716Z,6.40
2023-06-30T00:21:46.269Z,6.80
2023-06-30T00:24:14.314Z,6.30
2023-06-30T00:26:41.894Z,6.30
2023-06-30T00:29:10.072Z,6.30
2023-06-30T00:31:37.777Z,6.40
2023-06-30T00:34:05.294Z,5.70
2023-06-30T00:36:32.677Z,6.90
2023-06-30T00:39:00.701Z,6.20
2023-06-30T00:41:28.135Z,5.90
2023-06-30T00:43:57.041Z,6.60
2023-06-30T00:46:24.470Z,5.90
2023-06-30T00:48:51.792Z,7.10
2023-06-30T00:51:19.092Z,6.00
2023-06-30T00:53:46.534Z,5.90
2023-06-30T00:56:14.042Z,5.90
2023-06-30T00:58:41.388Z,6.20
2023-06-30T01:01:17.155Z,6.80
2023-06-30T01:03:48.471Z,6.70
2023-06-30T01:06:17.685Z,6.50
2023-06-30T01:08:56.811Z,6.00
2023-06-30T01:11:25.712Z,6.40
2023-06-30T01:13:54.635Z,6.40
2023-06-30T01:16:24.001Z,6.50
2023-06-30T01:18:54.216Z,6.20
2023-06-30T01:21:22.973Z,6.10
2023-06-30T01:23:55.689Z,6.20
2023-06-30T01:26:23.401Z,6.30
2023-06-30T01:28:52.298Z,6.00
2023-06-30T01:31:20.704Z,6.70
2023-06-30T01:33:48.179Z,7.00
2023-06-30T01:36:15.555Z,6.00
2023-06-30T01:38:44.128Z,6.40
2023-06-30T01:41:11.606Z,6.40
2023-06-30T01:43:40.114Z,6.70
2023-06-30T01:46:07.519Z,6.30
2023-06-30T01:48:35.002Z,6.80
2023-06-30T01:51:02.424Z,6.90
2023-06-30T01:53:29.771Z,6.70
2023-06-30T01:55:57.073Z,6.50
2023-06-30T01:58:24.411Z,6.00
2023-06-30T02:00:51.812Z,6.10
2023-06-30T02:03:19.303Z,6.10
2023-06-30T02:08:17.724Z,7.00
2023-06-30T02:10:45.109Z,6.90
2023-06-30T02:13:12.549Z,6.80
2023-06-30T02:15:39.921Z,6.80
2023-06-30T02:18:07.355Z,7.10
2023-06-30T02:20:36.382Z,6.50
2023-06-30T02:23:04.275Z,7.20
2023-06-30T02:25:31.576Z,7.30
2023-06-30T02:27:59.062Z,6.90
2023-06-30T02:30:26.403Z,6.20
2023-06-30T02:32:54.646Z,7.00
2023-06-30T02:35:22.276Z,7.10
2023-06-30T02:37:49.693Z,6.20
2023-06-30T02:42:56.950Z,6.60
2023-06-30T02:45:24.560Z,6.90
2023-06-30T02:47:52.063Z,6.70
2023-06-30T02:50:23.569Z,6.70
2023-06-30T02:55:20.643Z,6.80
2023-06-30T02:57:48.556Z,7.60
2023-06-30T03:00:16.696Z,7.00
2023-06-30T03:02:44.256Z,7.00
2023-06-30T03:05:11.808Z,6.60
2023-06-30T03:07:39.918Z,7.10
2023-06-30T03:10:08.646Z,6.10
2023-06-30T03:12:36.718Z,7.00
2023-06-30T03:15:05.250Z,6.80
2023-06-30T03:17:33.372Z,6.90
2023-06-30T03:20:01.254Z,6.80
2023-06-30T03:22:28.616Z,6.20
2023-06-30T03:24:58.705Z,6.40
2023-06-30T03:27:26.146Z,6.20
2023-06-30T03:29:53.548Z,6.90
2023-06-30T03:32:20.939Z,7.20
2023-06-30T03:34:48.361Z,6.00
2023-06-30T03:37:15.669Z,6.60
2023-06-30T03:39:43.159Z,7.10
2023-06-30T03:42:10.592Z,6.50
2023-06-30T03:44:38.935Z,6.50
2023-06-30T03:47:06.344Z,6.50
2023-06-30T03:49:33.620Z,6.50
2023-06-30T03:52:01.965Z,6.30
2023-06-30T03:54:29.286Z,6.20
2023-06-30T03:56:58.264Z,6.90
2023-06-30T03:59:25.678Z,6.60
2023-06-30T04:01:53.955Z,6.20
2023-06-30T04:04:22.249Z,7.20
2023-06-30T04:06:49.781Z,6.60
2023-06-30T04:09:17.207Z,7.40
2023-06-30T04:11:44.526Z,6.40
2023-06-30T04:14:11.841Z,5.70
2023-06-30T04:16:39.278Z,6.20
2023-06-30T04:19:06.820Z,5.90
2023-06-30T04:21:34.156Z,6.50
2023-06-30T04:24:01.485Z,5.90
2023-06-30T04:26:29.776Z,5.40
2023-06-30T04:28:57.680Z,6.10
2023-06-30T04:31:27.964Z,6.30
2023-06-30T04:33:55.892Z,6.30
2023-06-30T04:36:23.313Z,6.20
2023-06-30T04:38:51.170Z,6.30
2023-06-30T04:41:19.325Z,6.30
2023-06-30T04:43:46.629Z,6.00
2023-06-30T04:46:13.985Z,6.10
2023-06-30T04:48:41.350Z,6.30
2023-06-30T04:51:08.703Z,6.30
2023-06-30T04:53:36.889Z,6.40
2023-06-30T04:56:04.407Z,7.50
2023-06-30T04:58:31.793Z,6.60
2023-06-30T05:00:59.195Z,6.20
2023-06-30T05:03:26.636Z,6.00
2023-06-30T05:05:54.024Z,5.80
2023-06-30T05:08:21.708Z,6.30
2023-06-30T05:10:49.231Z,5.90
2023-06-30T05:13:16.613Z,6.00
2023-06-30T05:15:44.285Z,6.00
2023-06-30T05:18:12.018Z,5.50
2023-06-30T05:20:40.529Z,6.00
2023-06-30T05:23:07.834Z,5.70
2023-06-30T05:25:35.760Z,6.10
2023-06-30T05:28:03.904Z,5.80
2023-06-30T05:30:31.305Z,5.70
2023-06-30T05:32:58.649Z,6.10
2023-06-30T05:35:26.066Z,5.00
2023-06-30T05:37:53.368Z,6.00
2023-06-30T05:40:20.826Z,5.50
2023-06-30T05:42:48.137Z,5.20
2023-06-30T05:45:15.476Z,5.30
2023-06-30T05:47:42.815Z,5.50
2023-06-30T05:50:10.396Z,7.00
2023-06-30T05:52:37.939Z,5.90
2023-06-30T05:55:05.844Z,5.50
2023-06-30T05:57:34.707Z,5.50
2023-06-30T06:00:02.168Z,5.40
2023-06-30T06:02:39.408Z,5.60
2023-06-30T06:05:07.272Z,5.30
2023-06-30T06:07:35.687Z,5.10
2023-06-30T06:10:03.142Z,5.40
2023-06-30T06:12:30.853Z,5.40
2023-06-30T06:14:58.216Z,5.50
2023-06-30T06:17:25.557Z,5.70
2023-06-30T06:19:53.198Z,5.80
2023-06-30T06:22:20.550Z,5.60
2023-06-30T06:24:47.845Z,5.80
2023-06-30T06:27:15.243Z,6.00
2023-06-30T06:29:42.540Z,5.70
2023-06-30T06:32:09.986Z,5.30
2023-06-30T06:34:37.369Z,5.30
2023-06-30T06:37:04.996Z,5.90
2023-06-30T06:39:32.340Z,5.40
2023-06-30T06:41:59.663Z,5.60
2023-06-30T06:44:27.010Z,5.30
2023-06-30T06:47:32.925Z,5.20
2023-06-30T06:50:01.947Z,5.30
2023-06-30T06:52:29.367Z,5.50
2023-06-30T06:54:56.697Z,5.30
2023-06-30T06:57:24.017Z,5.40
2023-06-30T06:59:51.325Z,6.30
2023-06-30T07:02:18.685Z,5.80
2023-06-30T07:04:46.057Z,5.60
2023-06-30T07:07:13.429Z,5.10
2023-06-30T07:09:40.815Z,5.50
2023-06-30T07:12:08.631Z,5.50
2023-06-30T07:14:36.937Z,6.00
2023-06-30T07:17:04.628Z,5.90
2023-06-30T07:19:32.021Z,5.20
2023-06-30T07:21:59.295Z,5.20
2023-06-30T07:24:26.717Z,5.40
2023-06-30T07:26:55.256Z,5.10
2023-06-30T07:29:22.785Z,5.30
2023-06-30T07:31:50.372Z,5.30
2023-06-30T07:34:20.319Z,5.60
2023-06-30T07:36:47.699Z,5.00
2023-06-30T07:39:15.099Z,5.00
2023-06-30T07:41:42.580Z,5.80
2023-06-30T07:44:12.917Z,5.20
2023-06-30T07:46:40.239Z,5.60
2023-06-30T07:49:07.644Z,5.80
2023-06-30T07:51:35.026Z,4.70
2023-06-30T07:54:06.365Z,5.30
2023-06-30T07:56:33.908Z,5.10
2023-06-30T07:59:01.260Z,5.20
2023-06-30T08:01:28.561Z,4.90
2023-06-30T08:03:56.209Z,4.70
2023-06-30T08:06:23.924Z,5.20
2023-06-30T08:08:51.535Z,5.40
2023-06-30T08:11:18.888Z,4.80
2023-06-30T08:13:46.188Z,4.80
2023-06-30T08:16:14.162Z,4.50
2023-06-30T08:18:51.315Z,4.70
2023-06-30T08:21:20.030Z,5.60
2023-06-30T08:23:47.631Z,4.80
2023-06-30T08:26:15.837Z,5.00
2023-06-30T08:28:43.340Z,4.80
2023-06-30T08:31:10.724Z,5.00
2023-06-30T08:33:40.947Z,4.60
2023-06-30T08:36:08.719Z,5.10
2023-06-30T08:38:36.064Z,4.40
2023-06-30T08:41:04.550Z,4.90
2023-06-30T08:43:32.440Z,5.00
2023-06-30T08:46:02.490Z,4.80
2023-06-30T08:48:30.563Z,4.80
2023-06-30T08:50:59.555Z,5.00
2023-06-30T08:53:28.777Z,4.90
2023-06-30T08:55:57.168Z,4.70
2023-06-30T08:58:26.750Z,4.80
2023-06-30T09:00:54.974Z,5.00
2023-06-30T09:03:22.894Z,4.90
2023-06-30T09:05:56.058Z,4.20
2023-06-30T09:08:26.961Z,5.10
2023-06-30T09:10:57.386Z,4.30
2023-06-30T09:13:25.014Z,5.20
2023-06-30T09:15:54.888Z,4.70
2023-06-30T09:18:22.304Z,5.20
2023-06-30T09:20:49.632Z,4.90
2023-06-30T09:23:17.915Z,4.90
2023-06-30T09:25:45.921Z,5.10
2023-06-30T09:28:15.696Z,4.60
2023-06-30T09:30:47.558Z,4.90
2023-06-30T09:33:16.392Z,4.80
2023-06-30T09:35:46.292Z,4.60
2023-06-30T09:38:18.924Z,4.70
2023-06-30T09:40:48.286Z,4.90
2023-06-30T09:43:26.696Z,4.50
2023-06-30T09:46:01.473Z,4.40
2023-06-30T09:48:35.790Z,4.50
2023-06-30T09:51:03.204Z,4.80
2023-06-30T09:53:39.503Z,4.60
2023-06-30T09:56:07.826Z,4.30
2023-06-30T09:58:37.194Z,4.30
2023-06-30T10:01:04.772Z,4.60
2023-06-30T10:03:33.198Z,4.30
2023-06-30T10:06:00.632Z,4.00
2023-06-30T10:08:27.940Z,4.40
2023-06-30T10:10:55.744Z,4.90
2023-06-30T10:13:23.488Z,4.10
2023-06-30T10:15:50.858Z,4.20
2023-06-30T10:18:18.876Z,4.50
2023-06-30T10:20:49.513Z,4.70
2023-06-30T10:23:20.248Z,4.00
2023-06-30T10:25:47.940Z,4.40
2023-06-30T10:28:15.871Z,4.00
2023-06-30T10:30:43.298Z,4.20
2023-06-30T10:33:10.714Z,4.60
2023-06-30T10:35:38.934Z,4.40
2023-06-30T10:38:06.435Z,4.20
2023-06-30T10:40:34.162Z,4.60
2023-06-30T10:43:01.570Z,4.60
2023-06-30T10:45:30.403Z,5.00
2023-06-30T10:47:58.854Z,4.50
2023-06-30T10:50:26.311Z,4.90
2023-06-30T10:52:54.696Z,4.90
2023-06-30T10:55:23.870Z,4.60
2023-06-30T10:57:52.938Z,4.60
2023-06-30T11:00:26.694Z,4.40
2023-06-30T11:03:00.832Z,4.40
2023-06-30T11:05:29.909Z,4.50
2023-06-30T11:08:04.712Z,5.00
2023-06-30T11:10:36.131Z,4.70
2023-06-30T11:13:05.104Z,4.60
2023-06-30T11:15:46.330Z,4.50
2023-06-30T11:18:22.377Z,4.30
2023-06-30T11:20:59.656Z,4.30
2023-06-30T11:23:37.932Z,4.20
2023-06-30T11:26:15.483Z,4.70
2023-06-30T11:28:43.578Z,4.30
2023-06-30T11:31:14.276Z,4.20
2023-06-30T11:33:42.384Z,4.70
2023-06-30T11:36:16.513Z,4.30
2023-06-30T11:38:47.707Z,4.70
2023-06-30T11:41:21.889Z,4.50
2023-06-30T11:43:55.034Z,5.00
2023-06-30T11:46:22.877Z,3.90
2023-06-30T11:48:50.675Z,4.90
2023-06-30T11:51:18.411Z,4.70
2023-06-30T11:53:49.090Z,5.30
2023-06-30T11:56:19.178Z,4.70
2023-06-30T11:58:53.360Z,5.20
2023-06-30T12:01:23.481Z,5.00
2023-06-30T12:04:01.154Z,4.90
2023-06-30T12:06:29.463Z,5.30
2023-06-30T12:08:59.753Z,5.10
2023-06-30T12:11:29.700Z,5.90
2023-06-30T12:13:57.013Z,5.40
2023-06-30T12:16:27.768Z,5.10
2023-06-30T12:21:22.493Z,5.40
2023-06-30T12:23:49.834Z,5.20
2023-06-30T12:26:17.177Z,5.80
2023-06-30T12:28:44.529Z,5.30
2023-06-30T12:31:11.882Z,5.70
2023-06-30T12:33:39.347Z,5.30
2023-06-30T12:36:07.537Z,5.60
2023-06-30T12:38:34.990Z,5.60
2023-06-30T12:41:02.863Z,5.70
2023-06-30T12:43:31.997Z,4.90
2023-06-30T12:45:59.446Z,5.00
2023-06-30T12:48:26.796Z,5.20
2023-06-30T12:50:57.368Z,5.30
2023-06-30T12:53:25.055Z,5.30
2023-06-30T12:55:53.949Z,5.40
2023-06-30T12:58:21.370Z,5.30
2023-06-30T13:00:48.752Z,4.60
2023-06-30T13:03:16.303Z,4.80
2023-06-30T13:05:43.801Z,4.30
2023-06-30T13:08:11.162Z,4.20
2023-06-30T13:10:38.536Z,4.20
2023-06-30T13:13:05.857Z,4.50
2023-06-30T13:15:33.486Z,4.60
2023-06-30T13:18:00.868Z,4.40
2023-06-30T13:20:28.290Z,5.00
2023-06-30T13:23:10.123Z,4.10
2023-06-30T13:25:39.908Z,4.80
2023-06-30T13:28:07.253Z,4.30
2023-06-30T13:30:35.905Z,4.80
2023-06-30T13:33:03.289Z,4.90
2023-06-30T13:35:32.066Z,4.60
2023-06-30T13:37:59.396Z,5.40
2023-06-30T13:40:26.973Z,4.30
2023-06-30T13:42:55.196Z,4.80
2023-06-30T13:45:22.584Z,4.50
2023-06-30T13:47:50.224Z,4.70
2023-06-30T13:50:17.610Z,4.80
2023-06-30T13:52:45.002Z,4.80
2023-06-30T13:55:12.434Z,4.70
2023-06-30T13:57:39.800Z,5.20
2023-06-30T14:00:07.734Z,5.10
2023-06-30T14:02:35.196Z,5.00
2023-06-30T14:05:02.986Z,4.60
2023-06-30T14:07:30.544Z,5.90
2023-06-30T14:09:59.363Z,5.20
2023-06-30T14:12:26.737Z,5.10
2023-06-30T14:14:54.357Z,5.50
2023-06-30T14:17:21.793Z,5.20
2023-06-30T14:19:51.378Z,5.40
2023-06-30T14:22:19.771Z,4.60
2023-06-30T14:24:47.136Z,5.30
2023-06-30T14:27:14.615Z,5.10
2023-06-30T14:29:43.668Z,4.90
2023-06-30T14:32:11.216Z,5.20
2023-06-30T14:34:39.539Z,5.30
2023-06-30T14:37:06.893Z,4.90
2023-06-30T14:39:34.199Z,4.70
2023-06-30T14:42:02.957Z,4.70
2023-06-30T14:44:30.504Z,5.10
2023-06-30T14:46:59.894Z,4.70
2023-06-30T14:49:27.749Z,5.50
2023-06-30T14:51:55.127Z,5.10
2023-06-30T14:54:22.478Z,5.10
2023-06-30T14:56:49.967Z,7.20
2023-06-30T15:00:08.547Z,5.40
2023-06-30T15:02:36.231Z,5.60
2023-06-30T15:05:04.628Z,6.00
2023-06-30T15:07:32.923Z,5.20
2023-06-30T15:10:01.254Z,5.30
2023-06-30T15:12:28.616Z,5.60
2023-06-30T15:14:56.003Z,5.40
2023-06-30T15:17:23.571Z,6.00
2023-06-30T15:19:51.323Z,5.90
2023-06-30T15:22:18.956Z,5.30
2023-06-30T15:24:46.353Z,5.30
2023-06-30T15:27:13.742Z,6.70
2023-06-30T15:29:41.178Z,5.10
2023-06-30T15:32:08.682Z,4.90
2023-06-30T15:34:36.069Z,5.40
2023-06-30T15:37:04.772Z,5.70
2023-06-30T15:39:32.681Z,5.80
2023-06-30T15:42:00.271Z,5.70
2023-06-30T15:44:27.641Z,5.60
2023-06-30T15:46:54.977Z,5.60
2023-06-30T15:49:22.707Z,5.30
2023-06-30T15:51:53.162Z,6.00
2023-06-30T15:54:20.604Z,5.20
2023-06-30T15:56:48.227Z,5.30
2023-06-30T15:59:15.609Z,5.10
2023-06-30T16:01:44.198Z,5.30
2023-06-30T16:04:11.689Z,5.40
2023-06-30T16:06:39.158Z,5.40
2023-06-30T16:09:06.594Z,5.20
2023-06-30T16:11:33.905Z,5.30
2023-06-30T16:14:01.227Z,5.30
2023-06-30T16:16:30.016Z,5.70
2023-06-30T16:18:57.463Z,4.80
2023-06-30T16:21:24.916Z,5.40
2023-06-30T16:23:52.316Z,5.20
2023-06-30T16:26:22.561Z,5.10
2023-06-30T16:28:49.918Z,4.90
2023-06-30T16:31:17.516Z,5.00
2023-06-30T16:33:44.889Z,5.00
2023-06-30T16:36:12.301Z,4.80
2023-06-30T16:38:42.346Z,5.70
2023-06-30T16:41:09.688Z,5.00
2023-06-30T16:43:37.036Z,4.80
2023-06-30T16:46:04.389Z,5.50
2023-06-30T16:48:31.892Z,5.10
2023-06-30T16:51:02.181Z,5.50
2023-06-30T16:53:29.559Z,5.90
2023-06-30T16:55:57.331Z,5.50
2023-06-30T16:58:26.377Z,5.60
2023-06-30T17:00:54.188Z,5.80
2023-06-30T17:03:21.740Z,5.30
2023-06-30T17:05:49.656Z,5.80
2023-06-30T17:08:17.273Z,5.30
2023-06-30T17:10:46.742Z,5.30
2023-06-30T17:13:14.381Z,5.90
2023-06-30T17:15:41.722Z,5.60
2023-06-30T17:18:09.344Z,5.40
2023-06-30T17:20:37.117Z,6.60
2023-06-30T17:23:06.595Z,5.40
2023-06-30T17:25:33.951Z,6.30
2023-06-30T17:28:01.440Z,6.80
2023-06-30T17:30:28.820Z,7.40
2023-06-30T17:32:56.192Z,6.60
2023-06-30T17:35:24.829Z,6.40
2023-06-30T17:37:52.907Z,6.50
2023-06-30T17:40:21.410Z,6.20
2023-06-30T17:42:48.805Z,5.90
2023-06-30T17:45:16.318Z,6.10
2023-06-30T17:47:43.745Z,6.70
2023-06-30T17:50:11.406Z,6.70
2023-06-30T17:52:38.793Z,21.10
2023-06-30T17:55:06.432Z,9.40
2023-06-30T17:57:33.834Z,10.00
2023-06-30T18:00:01.236Z,10.30
2023-06-30T18:02:28.603Z,8.90
2023-06-30T18:04:56.111Z,10.50
2023-06-30T18:07:23.690Z,8.50
2023-06-30T18:09:51.721Z,7.60
2023-06-30T18:12:19.103Z,7.50
2023-06-30T18:14:46.394Z,7.00
2023-06-30T18:17:16.257Z,7.90
2023-06-30T18:19:43.705Z,6.60
2023-06-30T18:22:11.183Z,6.90
2023-06-30T18:24:38.629Z,7.80
2023-06-30T18:27:06.594Z,7.20
2023-06-30T18:29:33.939Z,7.40
2023-06-30T18:32:01.520Z,7.30
2023-06-30T18:34:29.025Z,6.90
2023-06-30T18:36:56.416Z,7.20
2023-06-30T18:39:23.929Z,6.90
2023-06-30T18:41:51.354Z,7.50
2023-06-30T18:44:18.641Z,7.60
2023-06-30T18:46:46.073Z,8.10
2023-06-30T18:49:13.591Z,8.20
2023-06-30T18:51:43.761Z,7.50
2023-06-30T18:54:11.294Z,8.20
2023-06-30T18:56:39.053Z,8.20
2023-06-30T18:59:06.711Z,8.30
2023-06-30T19:01:34.197Z,9.30
2023-06-30T19:04:01.825Z,10.10
2023-06-30T19:06:29.402Z,7.40
2023-06-30T19:08:57.216Z,8.90
2023-06-30T19:11:24.730Z,7.20
2023-06-30T19:13:52.288Z,8.80
2023-06-30T19:16:19.918Z,9.50
2023-06-30T19:18:47.515Z,7.50
2023-06-30T19:21:15.061Z,8.60
2023-06-30T19:23:42.563Z,8.70
2023-06-30T19:26:10.531Z,9.10
2023-06-30T19:28:40.252Z,8.60
2023-06-30T19:31:08.054Z,8.10
2023-06-30T19:33:37.451Z,8.90
2023-06-30T19:36:05.189Z,9.40
2023-06-30T19:38:32.565Z,9.40
2023-06-30T19:41:00.002Z,9.30
2023-06-30T19:43:27.480Z,8.50
2023-06-30T19:45:54.880Z,8.70
2023-06-30T19:48:22.273Z,9.20
2023-06-30T19:50:50.592Z,8.90
2023-06-30T19:53:18.099Z,10.40
2023-06-30T19:55:46.267Z,9.70
2023-06-30T19:58:14.134Z,8.70
2023-06-30T20:00:41.539Z,9.60
2023-06-30T20:03:09.015Z,8.70
2023-06-30T20:05:36.797Z,9.90
2023-06-30T20:08:04.638Z,8.70
2023-06-30T20:10:31.941Z,8.80
2023-06-30T20:12:59.261Z,9.00
2023-06-30T20:15:27.081Z,9.10
2023-06-30T20:17:54.910Z,8.50
2023-06-30T20:20:22.522Z,8.70
2023-06-30T20:22:49.918Z,8.90
2023-06-30T20:25:19.600Z,8.70
2023-06-30T20:27:47.173Z,9.30
2023-06-30T20:30:14.509Z,8.80
2023-06-30T20:32:41.996Z,8.40
2023-06-30T20:35:10.213Z,9.50
2023-06-30T20:37:37.723Z,8.30
2023-06-30T20:40:05.781Z,8.80
2023-06-30T20:42:33.167Z,8.30
2023-06-30T20:45:00.505Z,8.00
2023-06-30T20:47:28.481Z,7.60
2023-06-30T20:49:55.922Z,8.20
2023-06-30T20:52:23.313Z,8.10
2023-06-30T20:54:50.635Z,7.80
2023-06-30T20:57:17.992Z,7.90
2023-06-30T20:59:45.340Z,8.20
2023-06-30T21:02:12.915Z,8.30
2023-06-30T21:04:40.513Z,8.30
2023-06-30T21:07:07.847Z,8.80
2023-06-30T21:09:36.822Z,7.90
2023-06-30T21:12:04.508Z,8.30
2023-06-30T21:14:31.840Z,7.80
2023-06-30T21:16:59.251Z,8.70
2023-06-30T21:19:26.620Z,8.50
2023-06-30T21:21:54.108Z,8.70
2023-06-30T21:24:21.442Z,9.10
2023-06-30T21:26:48.729Z,7.80
2023-06-30T21:29:16.085Z,9.10
2023-06-30T21:31:43.483Z,8.00
2023-06-30T21:34:11.033Z,7.70
2023-06-30T21:36:39.621Z,8.50
2023-06-30T21:39:07.576Z,8.20
2023-06-30T21:41:36.466Z,9.10
2023-06-30T21:44:04.198Z,8.40
2023-06-30T21:46:31.550Z,8.40
2023-06-30T21:48:58.940Z,7.90
2023-06-30T21:51:26.272Z,8.20
2023-06-30T21:53:53.631Z,8.70
2023-06-30T21:56:21.021Z,9.10
2023-06-30T21:58:48.342Z,8.30
2023-06-30T22:01:20.172Z,9.10
2023-06-30T22:03:50.779Z,8.00
2023-06-30T22:06:18.228Z,8.80
2023-06-30T22:08:45.562Z,9.00
2023-06-30T22:11:13.064Z,8.90
2023-06-30T22:13:40.407Z,9.10
2023-06-30T22:16:07.747Z,9.60
2023-06-30T22:18:35.043Z,8.70
2023-06-30T22:21:04.229Z,9.50
2023-06-30T22:23:31.577Z,9.00
2023-06-30T22:25:58.965Z,9.70
2023-06-30T22:28:26.286Z,9.40
2023-06-30T22:30:53.677Z,8.10
2023-06-30T22:33:21.048Z,8.40
2023-06-30T22:35:48.354Z,8.50
2023-06-30T22:38:15.689Z,7.90
2023-06-30T22:40:43.027Z,8.90
2023-06-30T22:43:10.363Z,8.40
2023-06-30T22:45:37.928Z,9.20
2023-06-30T22:48:05.612Z,9.80
2023-06-30T22:50:33.050Z,8.90
2023-06-30T22:53:00.408Z,9.70
2023-06-30T22:55:28.212Z,8.20
2023-06-30T22:57:55.528Z,8.70
2023-06-30T23:00:22.888Z,9.10
2023-06-30T23:02:50.205Z,8.30
2023-06-30T23:05:17.485Z,9.10
2023-06-30T23:07:45.419Z,8.80
2023-06-30T23:10:12.832Z,9.00
2023-06-30T23:12:40.280Z,9.00
2023-06-30T23:15:07.884Z,7.80
2023-06-30T23:17:35.390Z,9.90
2023-06-30T23:20:04.016Z,9.40
2023-06-30T23:22:32.148Z,8.50
2023-06-30T23:25:01.035Z,10.00
2023-06-30T23:27:30.530Z,9.30
2023-06-30T23:29:57.998Z,9.10
2023-06-30T23:32:25.514Z,9.70
2023-06-30T23:34:53.034Z,8.90
2023-06-30T23:37:20.440Z,9.40
2023-06-30T23:39:52.247Z,9.30
2023-06-30T23:42:19.659Z,8.70
2023-06-30T23:44:46.979Z,9.90
2023-06-30T23:47:16.992Z,9.20
2023-06-30T23:49:46.224Z,9.80
2023-06-30T23:52:13.591Z,9.80
2023-06-30T23:54:41.016Z,9.10
2023-06-30T23:57:08.330Z,9.40
2023-06-30T23:59:35.638Z,9.60
